sensor_id;sensor_type;location;lat;lon;timestamp;pressure;altitude;pressure_sealevel;temperature;humidity
11099;BME280;12223;42.650;23.364;2022-12-18T00:00:44;95373.00;;;7.30;100.00
11099;BME280;12223;42.650;23.364;2022-12-18T00:03:12;95372.50;;;6.91;100.00
11099;BME280;12223;42.650;23.364;2022-12-18T00:05:46;95367.97;;;6.84;100.00
11099;BME280;12223;42.650;23.364;2022-12-18T00:08:13;95361.63;;;6.79;100.00
11099;BME280;12223;42.650;23.364;2022-12-18T00:10:42;95360.44;;;6.96;100.00
11099;BME280;12223;42.650;23.364;2022-12-18T00:13:10;95371.31;;;6.93;100.00
11099;BME280;12223;42.650;23.364;2022-12-18T00:15:38;95384.00;;;6.60;100.00
11099;BME280;12223;42.650;23.364;2022-12-18T00:18:05;95383.16;;;6.60;100.00
11099;BME280;12223;42.650;23.364;2022-12-18T00:20:35;95388.34;;;6.68;100.00
11099;BME280;12223;42.650;23.364;2022-12-18T00:23:02;95400.19;;;6.49;100.00
11099;BME280;12223;42.650;23.364;2022-12-18T00:25:29;95388.31;;;6.53;100.00
11099;BME280;12223;42.650;23.364;2022-12-18T00:27:57;95385.63;;;6.61;100.00
11099;BME280;12223;42.650;23.364;2022-12-18T00:30:24;95390.97;;;6.82;100.00
11099;BME280;12223;42.650;23.364;2022-12-18T00:32:51;95405.56;;;7.00;100.00
11099;BME280;12223;42.650;23.364;2022-12-18T00:35:17;95410.63;;;6.86;100.00
11099;BME280;12223;42.650;23.364;2022-12-18T00:37:44;95417.28;;;6.60;100.00
11099;BME280;12223;42.650;23.364;2022-12-18T00:40:12;95412.59;;;6.84;100.00
11099;BME280;12223;42.650;23.364;2022-12-18T00:42:38;95412.59;;;6.84;100.00
11099;BME280;12223;42.650;23.364;2022-12-18T00:45:24;95421.66;;;6.67;100.00
11099;BME280;12223;42.650;23.364;2022-12-18T00:47:51;95422.84;;;6.94;100.00
11099;BME280;12223;42.650;23.364;2022-12-18T00:50:18;95432.16;;;6.97;100.00
11099;BME280;12223;42.650;23.364;2022-12-18T00:52:45;95432.81;;;6.99;100.00
11099;BME280;12223;42.650;23.364;2022-12-18T00:55:12;95446.00;;;6.91;100.00
11099;BME280;12223;42.650;23.364;2022-12-18T00:57:38;95445.75;;;6.85;100.00
11099;BME280;12223;42.650;23.364;2022-12-18T01:00:08;95443.75;;;6.88;100.00
11099;BME280;12223;42.650;23.364;2022-12-18T01:02:36;95448.84;;;6.89;100.00
11099;BME280;12223;42.650;23.364;2022-12-18T01:05:04;95446.13;;;6.82;100.00
11099;BME280;12223;42.650;23.364;2022-12-18T01:07:31;95454.00;;;6.82;100.00
11099;BME280;12223;42.650;23.364;2022-12-18T01:09:57;95461.22;;;6.80;100.00
11099;BME280;12223;42.650;23.364;2022-12-18T01:12:24;95462.00;;;6.66;100.00
11099;BME280;12223;42.650;23.364;2022-12-18T01:14:51;95461.56;;;6.77;100.00
11099;BME280;12223;42.650;23.364;2022-12-18T01:17:18;95461.94;;;6.74;100.00
11099;BME280;12223;42.650;23.364;2022-12-18T01:19:46;95455.97;;;6.80;100.00
11099;BME280;12223;42.650;23.364;2022-12-18T01:22:12;95466.81;;;6.63;100.00
11099;BME280;12223;42.650;23.364;2022-12-18T01:24:39;95458.00;;;6.56;100.00
11099;BME280;12223;42.650;23.364;2022-12-18T01:27:06;95467.97;;;6.60;100.00
11099;BME280;12223;42.650;23.364;2022-12-18T01:29:33;95470.25;;;6.40;100.00
11099;BME280;12223;42.650;23.364;2022-12-18T01:31:59;95484.03;;;6.42;100.00
11099;BME280;12223;42.650;23.364;2022-12-18T01:34:26;95487.19;;;6.38;100.00
11099;BME280;12223;42.650;23.364;2022-12-18T01:36:54;95486.06;;;6.32;100.00
11099;BME280;12223;42.650;23.364;2022-12-18T01:39:21;95490.03;;;6.28;100.00
11099;BME280;12223;42.650;23.364;2022-12-18T01:41:48;95483.16;;;6.27;100.00
11099;BME280;12223;42.650;23.364;2022-12-18T01:45:02;95485.09;;;6.11;100.00
11099;BME280;12223;42.650;23.364;2022-12-18T01:47:33;95488.31;;;5.82;100.00
11099;BME280;12223;42.650;23.364;2022-12-18T01:50:05;95491.28;;;5.87;100.00
11099;BME280;12223;42.650;23.364;2022-12-18T01:52:34;95486.34;;;5.92;100.00
11099;BME280;12223;42.650;23.364;2022-12-18T01:55:04;95481.13;;;5.84;100.00
11099;BME280;12223;42.650;23.364;2022-12-18T01:57:31;95489.16;;;5.82;100.00
11099;BME280;12223;42.650;23.364;2022-12-18T02:00:03;95491.06;;;5.96;100.00
11099;BME280;12223;42.650;23.364;2022-12-18T02:02:33;95493.53;;;5.98;100.00
11099;BME280;12223;42.650;23.364;2022-12-18T02:05:00;95499.59;;;5.98;100.00
11099;BME280;12223;42.650;23.364;2022-12-18T02:07:37;95487.59;;;5.65;100.00
11099;BME280;12223;42.650;23.364;2022-12-18T02:10:14;95494.81;;;5.63;100.00
11099;BME280;12223;42.650;23.364;2022-12-18T02:12:48;95497.56;;;5.70;100.00
11099;BME280;12223;42.650;23.364;2022-12-18T02:15:22;95491.56;;;5.61;100.00
11099;BME280;12223;42.650;23.364;2022-12-18T02:17:54;95491.97;;;5.42;100.00
11099;BME280;12223;42.650;23.364;2022-12-18T02:20:28;95486.22;;;5.46;100.00
11099;BME280;12223;42.650;23.364;2022-12-18T02:23:07;95489.84;;;5.76;100.00
11099;BME280;12223;42.650;23.364;2022-12-18T02:25:57;95493.81;;;5.72;100.00
11099;BME280;12223;42.650;23.364;2022-12-18T02:28:31;95502.72;;;5.55;100.00
11099;BME280;12223;42.650;23.364;2022-12-18T02:31:01;95501.50;;;5.74;100.00
11099;BME280;12223;42.650;23.364;2022-12-18T02:33:30;95502.16;;;5.37;100.00
11099;BME280;12223;42.650;23.364;2022-12-18T02:35:59;95492.00;;;5.34;100.00
11099;BME280;12223;42.650;23.364;2022-12-18T02:38:27;95496.53;;;5.48;100.00
11099;BME280;12223;42.650;23.364;2022-12-18T02:40:57;95505.16;;;5.56;100.00
11099;BME280;12223;42.650;23.364;2022-12-18T02:43:25;95506.84;;;5.49;100.00
11099;BME280;12223;42.650;23.364;2022-12-18T02:45:53;95508.81;;;5.47;100.00
11099;BME280;12223;42.650;23.364;2022-12-18T02:48:26;95490.78;;;5.05;100.00
11099;BME280;12223;42.650;23.364;2022-12-18T02:50:59;95494.47;;;5.35;100.00
11099;BME280;12223;42.650;23.364;2022-12-18T02:53:35;95507.03;;;5.40;100.00
11099;BME280;12223;42.650;23.364;2022-12-18T02:56:09;95504.66;;;5.22;100.00
11099;BME280;12223;42.650;23.364;2022-12-18T02:58:46;95492.66;;;4.80;100.00
11099;BME280;12223;42.650;23.364;2022-12-18T03:01:21;95474.44;;;4.87;100.00
11099;BME280;12223;42.650;23.364;2022-12-18T03:03:55;95474.19;;;4.66;100.00
11099;BME280;12223;42.650;23.364;2022-12-18T03:06:27;95459.16;;;4.68;100.00
11099;BME280;12223;42.650;23.364;2022-12-18T03:08:59;95476.44;;;4.85;100.00
11099;BME280;12223;42.650;23.364;2022-12-18T03:11:31;95487.94;;;4.68;100.00
11099;BME280;12223;42.650;23.364;2022-12-18T03:14:29;95492.94;;;4.94;100.00
11099;BME280;12223;42.650;23.364;2022-12-18T03:16:59;95510.03;;;5.20;100.00
11099;BME280;12223;42.650;23.364;2022-12-18T03:19:29;95520.88;;;5.17;100.00
11099;BME280;12223;42.650;23.364;2022-12-18T03:22:00;95519.06;;;5.18;100.00
11099;BME280;12223;42.650;23.364;2022-12-18T03:24:29;95550.88;;;5.46;100.00
11099;BME280;12223;42.650;23.364;2022-12-18T03:27:01;95549.69;;;5.09;100.00
11099;BME280;12223;42.650;23.364;2022-12-18T03:29:34;95545.94;;;5.04;100.00
11099;BME280;12223;42.650;23.364;2022-12-18T03:32:06;95544.44;;;5.01;100.00
11099;BME280;12223;42.650;23.364;2022-12-18T03:34:35;95546.91;;;4.95;100.00
11099;BME280;12223;42.650;23.364;2022-12-18T03:37:05;95547.25;;;4.75;100.00
11099;BME280;12223;42.650;23.364;2022-12-18T03:39:33;95540.88;;;4.78;100.00
11099;BME280;12223;42.650;23.364;2022-12-18T03:42:04;95557.25;;;4.72;100.00
11099;BME280;12223;42.650;23.364;2022-12-18T03:44:39;95545.81;;;4.73;100.00
11099;BME280;12223;42.650;23.364;2022-12-18T03:47:14;95555.91;;;5.00;100.00
11099;BME280;12223;42.650;23.364;2022-12-18T03:49:47;95570.47;;;5.03;100.00
11099;BME280;12223;42.650;23.364;2022-12-18T03:52:20;95599.13;;;4.80;100.00
11099;BME280;12223;42.650;23.364;2022-12-18T03:54:48;95595.69;;;4.79;100.00
11099;BME280;12223;42.650;23.364;2022-12-18T03:57:18;95601.72;;;5.04;100.00
11099;BME280;12223;42.650;23.364;2022-12-18T03:59:48;95610.06;;;5.16;100.00
11099;BME280;12223;42.650;23.364;2022-12-18T04:02:17;95612.31;;;5.27;100.00
11099;BME280;12223;42.650;23.364;2022-12-18T04:04:45;95605.81;;;4.74;100.00
11099;BME280;12223;42.650;23.364;2022-12-18T04:07:13;95617.41;;;4.88;100.00
11099;BME280;12223;42.650;23.364;2022-12-18T04:09:41;95605.00;;;4.74;100.00
11099;BME280;12223;42.650;23.364;2022-12-18T04:12:10;95606.47;;;4.93;100.00
11099;BME280;12223;42.650;23.364;2022-12-18T04:14:38;95616.13;;;5.08;100.00
11099;BME280;12223;42.650;23.364;2022-12-18T04:17:04;95626.28;;;5.11;100.00
11099;BME280;12223;42.650;23.364;2022-12-18T04:19:31;95626.75;;;4.99;100.00
11099;BME280;12223;42.650;23.364;2022-12-18T04:21:58;95619.72;;;4.83;100.00
11099;BME280;12223;42.650;23.364;2022-12-18T04:24:25;95649.66;;;5.05;100.00
11099;BME280;12223;42.650;23.364;2022-12-18T04:26:51;95639.19;;;4.72;100.00
11099;BME280;12223;42.650;23.364;2022-12-18T04:29:18;95647.69;;;4.82;100.00
11099;BME280;12223;42.650;23.364;2022-12-18T04:31:46;95653.09;;;4.89;100.00
11099;BME280;12223;42.650;23.364;2022-12-18T04:34:13;95665.84;;;5.00;100.00
11099;BME280;12223;42.650;23.364;2022-12-18T04:36:40;95673.38;;;5.03;100.00
11099;BME280;12223;42.650;23.364;2022-12-18T04:39:07;95684.69;;;5.12;100.00
11099;BME280;12223;42.650;23.364;2022-12-18T04:41:33;95685.66;;;5.11;100.00
11099;BME280;12223;42.650;23.364;2022-12-18T04:44:01;95689.41;;;5.08;100.00
11099;BME280;12223;42.650;23.364;2022-12-18T04:46:27;95710.19;;;5.02;100.00
11099;BME280;12223;42.650;23.364;2022-12-18T04:48:56;95713.13;;;5.07;100.00
11099;BME280;12223;42.650;23.364;2022-12-18T04:51:22;95720.84;;;5.08;100.00
11099;BME280;12223;42.650;23.364;2022-12-18T04:53:49;95719.16;;;4.83;100.00
11099;BME280;12223;42.650;23.364;2022-12-18T04:56:16;95721.91;;;4.65;100.00
11099;BME280;12223;42.650;23.364;2022-12-18T04:58:44;95726.53;;;4.79;100.00
11099;BME280;12223;42.650;23.364;2022-12-18T05:01:12;95729.63;;;4.83;100.00
11099;BME280;12223;42.650;23.364;2022-12-18T05:03:39;95741.22;;;4.72;100.00
11099;BME280;12223;42.650;23.364;2022-12-18T05:06:08;95740.50;;;4.46;100.00
11099;BME280;12223;42.650;23.364;2022-12-18T05:08:35;95728.25;;;4.63;100.00
11099;BME280;12223;42.650;23.364;2022-12-18T05:11:05;95744.66;;;4.73;100.00
11099;BME280;12223;42.650;23.364;2022-12-18T05:13:33;95740.72;;;4.69;100.00
11099;BME280;12223;42.650;23.364;2022-12-18T05:16:00;95753.97;;;4.67;100.00
11099;BME280;12223;42.650;23.364;2022-12-18T05:18:27;95759.09;;;4.35;100.00
11099;BME280;12223;42.650;23.364;2022-12-18T05:20:54;95755.75;;;4.59;100.00
11099;BME280;12223;42.650;23.364;2022-12-18T05:23:23;95758.31;;;4.42;100.00
11099;BME280;12223;42.650;23.364;2022-12-18T05:25:51;95761.94;;;4.24;100.00
11099;BME280;12223;42.650;23.364;2022-12-18T05:28:18;95753.13;;;4.17;100.00
11099;BME280;12223;42.650;23.364;2022-12-18T05:30:48;95767.56;;;4.37;100.00
11099;BME280;12223;42.650;23.364;2022-12-18T05:33:16;95773.75;;;4.28;100.00
11099;BME280;12223;42.650;23.364;2022-12-18T05:35:43;95771.03;;;4.12;100.00
11099;BME280;12223;42.650;23.364;2022-12-18T05:38:10;95766.69;;;4.20;100.00
11099;BME280;12223;42.650;23.364;2022-12-18T05:40:41;95785.91;;;4.45;100.00
11099;BME280;12223;42.650;23.364;2022-12-18T05:43:08;95781.75;;;4.26;100.00
11099;BME280;12223;42.650;23.364;2022-12-18T05:45:37;95778.25;;;4.10;100.00
11099;BME280;12223;42.650;23.364;2022-12-18T05:48:04;95784.59;;;4.41;100.00
11099;BME280;12223;42.650;23.364;2022-12-18T05:50:33;95781.16;;;4.40;100.00
11099;BME280;12223;42.650;23.364;2022-12-18T05:53:00;95798.91;;;4.55;100.00
11099;BME280;12223;42.650;23.364;2022-12-18T05:55:27;95794.44;;;4.47;100.00
11099;BME280;12223;42.650;23.364;2022-12-18T05:57:55;95805.44;;;4.25;100.00
11099;BME280;12223;42.650;23.364;2022-12-18T06:00:22;95802.69;;;4.00;100.00
11099;BME280;12223;42.650;23.364;2022-12-18T06:02:48;95805.03;;;4.12;100.00
11099;BME280;12223;42.650;23.364;2022-12-18T06:05:18;95799.38;;;4.24;100.00
11099;BME280;12223;42.650;23.364;2022-12-18T06:07:45;95816.72;;;4.25;100.00
11099;BME280;12223;42.650;23.364;2022-12-18T06:10:11;95803.56;;;4.43;100.00
11099;BME280;12223;42.650;23.364;2022-12-18T06:12:38;95815.94;;;4.33;100.00
11099;BME280;12223;42.650;23.364;2022-12-18T06:15:07;95817.66;;;4.16;100.00
11099;BME280;12223;42.650;23.364;2022-12-18T06:17:34;95816.72;;;4.25;100.00
11099;BME280;12223;42.650;23.364;2022-12-18T06:20:01;95834.59;;;4.38;100.00
11099;BME280;12223;42.650;23.364;2022-12-18T06:22:30;95829.22;;;4.39;100.00
11099;BME280;12223;42.650;23.364;2022-12-18T06:24:57;95830.28;;;4.55;100.00
11099;BME280;12223;42.650;23.364;2022-12-18T06:27:24;95839.97;;;4.36;100.00
11099;BME280;12223;42.650;23.364;2022-12-18T06:29:52;95838.56;;;4.42;100.00
11099;BME280;12223;42.650;23.364;2022-12-18T06:32:20;95838.63;;;4.58;100.00
11099;BME280;12223;42.650;23.364;2022-12-18T06:34:46;95846.97;;;4.62;100.00
11099;BME280;12223;42.650;23.364;2022-12-18T06:37:13;95847.53;;;4.73;100.00
11099;BME280;12223;42.650;23.364;2022-12-18T06:39:40;95848.03;;;4.43;100.00
11099;BME280;12223;42.650;23.364;2022-12-18T06:42:07;95860.50;;;4.23;100.00
11099;BME280;12223;42.650;23.364;2022-12-18T06:44:33;95868.91;;;4.35;100.00
11099;BME280;12223;42.650;23.364;2022-12-18T06:47:00;95865.28;;;4.54;100.00
11099;BME280;12223;42.650;23.364;2022-12-18T06:49:28;95870.44;;;4.45;100.00
11099;BME280;12223;42.650;23.364;2022-12-18T06:51:55;95867.13;;;4.35;100.00
11099;BME280;12223;42.650;23.364;2022-12-18T06:54:22;95872.84;;;4.39;100.00
11099;BME280;12223;42.650;23.364;2022-12-18T06:56:49;95874.22;;;4.51;100.00
11099;BME280;12223;42.650;23.364;2022-12-18T06:59:16;95876.38;;;4.56;100.00
11099;BME280;12223;42.650;23.364;2022-12-18T07:01:42;95888.03;;;4.61;100.00
11099;BME280;12223;42.650;23.364;2022-12-18T07:04:09;95892.28;;;4.62;100.00
11099;BME280;12223;42.650;23.364;2022-12-18T07:06:37;95894.59;;;4.65;100.00
11099;BME280;12223;42.650;23.364;2022-12-18T07:09:04;95898.84;;;4.66;100.00
11099;BME280;12223;42.650;23.364;2022-12-18T07:11:32;95900.03;;;4.72;100.00
11099;BME280;12223;42.650;23.364;2022-12-18T07:13:59;95896.53;;;4.37;100.00
11099;BME280;12223;42.650;23.364;2022-12-18T07:16:26;95880.50;;;4.32;100.00
11099;BME280;12223;42.650;23.364;2022-12-18T07:18:54;95895.97;;;4.52;100.00
11099;BME280;12223;42.650;23.364;2022-12-18T07:21:23;95898.13;;;4.56;100.00
11099;BME280;12223;42.650;23.364;2022-12-18T07:23:53;95893.81;;;4.73;100.00
11099;BME280;12223;42.650;23.364;2022-12-18T07:26:21;95901.50;;;4.74;100.00
11099;BME280;12223;42.650;23.364;2022-12-18T07:28:48;95897.75;;;4.77;100.00
11099;BME280;12223;42.650;23.364;2022-12-18T07:31:17;95900.50;;;4.41;100.00
11099;BME280;12223;42.650;23.364;2022-12-18T07:33:45;95914.56;;;4.74;100.00
11099;BME280;12223;42.650;23.364;2022-12-18T07:36:12;95909.81;;;4.70;100.00
11099;BME280;12223;42.650;23.364;2022-12-18T07:38:40;95903.34;;;4.82;100.00
11099;BME280;12223;42.650;23.364;2022-12-18T07:41:10;95922.19;;;4.85;100.00
11099;BME280;12223;42.650;23.364;2022-12-18T07:43:38;95925.31;;;4.89;100.00
11099;BME280;12223;42.650;23.364;2022-12-18T07:46:05;95932.69;;;4.94;100.00
11099;BME280;12223;42.650;23.364;2022-12-18T07:48:33;95930.25;;;4.92;100.00
11099;BME280;12223;42.650;23.364;2022-12-18T07:51:00;95933.44;;;4.78;100.00
11099;BME280;12223;42.650;23.364;2022-12-18T07:53:28;95929.84;;;4.79;100.00
11099;BME280;12223;42.650;23.364;2022-12-18T07:55:55;95935.66;;;4.99;100.00
11099;BME280;12223;42.650;23.364;2022-12-18T07:58:24;95940.03;;;4.90;100.00
11099;BME280;12223;42.650;23.364;2022-12-18T08:00:51;95947.59;;;4.67;100.00
11099;BME280;12223;42.650;23.364;2022-12-18T08:03:19;95957.44;;;4.48;100.00
11099;BME280;12223;42.650;23.364;2022-12-18T08:05:46;95946.47;;;4.26;100.00
11099;BME280;12223;42.650;23.364;2022-12-18T08:08:12;95955.25;;;4.17;100.00
11099;BME280;12223;42.650;23.364;2022-12-18T08:10:39;95962.34;;;4.51;100.00
11099;BME280;12223;42.650;23.364;2022-12-18T08:13:06;95969.38;;;4.68;100.00
11099;BME280;12223;42.650;23.364;2022-12-18T08:15:34;95976.81;;;4.63;100.00
11099;BME280;12223;42.650;23.364;2022-12-18T08:18:01;95976.69;;;4.64;100.00
11099;BME280;12223;42.650;23.364;2022-12-18T08:20:27;95979.75;;;4.60;100.00
11099;BME280;12223;42.650;23.364;2022-12-18T08:22:54;95986.53;;;4.70;100.00
11099;BME280;12223;42.650;23.364;2022-12-18T08:25:23;95988.78;;;4.65;100.00
11099;BME280;12223;42.650;23.364;2022-12-18T08:27:50;95999.53;;;4.80;100.00
11099;BME280;12223;42.650;23.364;2022-12-18T08:30:17;95999.56;;;4.88;100.00
11099;BME280;12223;42.650;23.364;2022-12-18T08:32:45;95997.53;;;4.74;100.00
11099;BME280;12223;42.650;23.364;2022-12-18T08:35:12;96001.47;;;4.78;100.00
11099;BME280;12223;42.650;23.364;2022-12-18T08:37:39;96005.31;;;4.66;100.00
11099;BME280;12223;42.650;23.364;2022-12-18T08:40:07;95974.09;;;4.47;100.00
11099;BME280;12223;42.650;23.364;2022-12-18T08:42:34;95996.56;;;4.57;100.00
11099;BME280;12223;42.650;23.364;2022-12-18T08:45:18;96000.84;;;4.58;100.00
11099;BME280;12223;42.650;23.364;2022-12-18T08:47:46;96004.28;;;4.59;100.00
11099;BME280;12223;42.650;23.364;2022-12-18T08:50:13;96018.25;;;4.67;100.00
11099;BME280;12223;42.650;23.364;2022-12-18T08:52:40;96014.78;;;4.41;100.00
11099;BME280;12223;42.650;23.364;2022-12-18T08:55:08;96006.00;;;4.50;100.00
11099;BME280;12223;42.650;23.364;2022-12-18T08:57:35;96006.34;;;4.29;100.00
11099;BME280;12223;42.650;23.364;2022-12-18T09:00:02;96011.03;;;4.26;100.00
11099;BME280;12223;42.650;23.364;2022-12-18T09:02:29;95997.50;;;4.13;100.00
11099;BME280;12223;42.650;23.364;2022-12-18T09:04:57;95995.38;;;4.52;100.00
11099;BME280;12223;42.650;23.364;2022-12-18T09:07:24;96007.28;;;4.46;100.00
11099;BME280;12223;42.650;23.364;2022-12-18T09:09:51;96008.22;;;4.63;100.00
11099;BME280;12223;42.650;23.364;2022-12-18T09:12:17;96010.41;;;4.67;100.00
11099;BME280;12223;42.650;23.364;2022-12-18T09:14:45;95999.72;;;4.61;100.00
11099;BME280;12223;42.650;23.364;2022-12-18T09:17:11;95996.91;;;4.54;100.00
11099;BME280;12223;42.650;23.364;2022-12-18T09:19:38;96004.59;;;4.38;100.00
11099;BME280;12223;42.650;23.364;2022-12-18T09:22:06;95993.13;;;4.57;100.00
11099;BME280;12223;42.650;23.364;2022-12-18T09:24:33;95975.41;;;4.07;100.00
11099;BME280;12223;42.650;23.364;2022-12-18T09:27:00;96009.53;;;4.41;100.00
11099;BME280;12223;42.650;23.364;2022-12-18T09:29:27;96004.16;;;4.42;100.00
11099;BME280;12223;42.650;23.364;2022-12-18T09:31:53;96004.00;;;4.44;100.00
11099;BME280;12223;42.650;23.364;2022-12-18T09:34:20;96004.31;;;4.41;100.00
11099;BME280;12223;42.650;23.364;2022-12-18T09:36:47;96001.22;;;4.45;100.00
11099;BME280;12223;42.650;23.364;2022-12-18T09:39:15;96009.75;;;4.48;100.00
11099;BME280;12223;42.650;23.364;2022-12-18T09:41:44;96013.09;;;4.58;100.00
11099;BME280;12223;42.650;23.364;2022-12-18T09:44:20;95995.47;;;4.60;100.00
11099;BME280;12223;42.650;23.364;2022-12-18T09:46:54;96015.56;;;4.24;100.00
11099;BME280;12223;42.650;23.364;2022-12-18T09:49:26;96018.56;;;4.47;100.00
11099;BME280;12223;42.650;23.364;2022-12-18T09:51:58;96009.78;;;4.56;100.00
11099;BME280;12223;42.650;23.364;2022-12-18T09:54:33;96015.50;;;4.51;100.00
11099;BME280;12223;42.650;23.364;2022-12-18T09:57:02;96007.47;;;4.70;100.00
11099;BME280;12223;42.650;23.364;2022-12-18T09:59:32;96009.06;;;4.89;100.00
11099;BME280;12223;42.650;23.364;2022-12-18T10:02:12;96016.41;;;5.11;100.00
11099;BME280;12223;42.650;23.364;2022-12-18T10:04:40;96021.78;;;5.36;100.00
11099;BME280;12223;42.650;23.364;2022-12-18T10:07:12;96012.97;;;5.45;100.00
11099;BME280;12223;42.650;23.364;2022-12-18T10:09:47;96012.53;;;5.23;100.00
11099;BME280;12223;42.650;23.364;2022-12-18T10:12:20;95977.03;;;4.95;100.00
11099;BME280;12223;42.650;23.364;2022-12-18T10:14:54;96022.00;;;5.16;100.00
11099;BME280;12223;42.650;23.364;2022-12-18T10:17:27;96021.88;;;5.26;100.00
11099;BME280;12223;42.650;23.364;2022-12-18T10:20:05;96027.63;;;5.30;100.00
11099;BME280;12223;42.650;23.364;2022-12-18T10:22:43;96026.47;;;5.24;100.00
11099;BME280;12223;42.650;23.364;2022-12-18T10:25:21;96013.59;;;5.39;100.00
11099;BME280;12223;42.650;23.364;2022-12-18T10:27:51;96021.25;;;5.32;100.00
11099;BME280;12223;42.650;23.364;2022-12-18T10:30:20;96018.63;;;5.32;100.00
11099;BME280;12223;42.650;23.364;2022-12-18T10:32:50;96027.16;;;5.34;100.00
11099;BME280;12223;42.650;23.364;2022-12-18T10:35:19;96021.25;;;5.32;100.00
11099;BME280;12223;42.650;23.364;2022-12-18T10:38:00;96020.66;;;5.12;100.00
11099;BME280;12223;42.650;23.364;2022-12-18T10:40:29;96014.84;;;5.26;100.00
11099;BME280;12223;42.650;23.364;2022-12-18T10:43:11;96012.72;;;4.96;100.00
11099;BME280;12223;42.650;23.364;2022-12-18T10:45:38;96018.41;;;4.92;100.00
11099;BME280;12223;42.650;23.364;2022-12-18T10:48:17;96003.53;;;4.92;100.00
11099;BME280;12223;42.650;23.364;2022-12-18T10:50:47;96004.50;;;4.91;100.00
11099;BME280;12223;42.650;23.364;2022-12-18T10:53:19;95994.31;;;5.14;100.00
11099;BME280;12223;42.650;23.364;2022-12-18T10:55:48;96010.28;;;5.29;100.00
11099;BME280;12223;42.650;23.364;2022-12-18T10:58:21;96013.75;;;5.37;100.00
11099;BME280;12223;42.650;23.364;2022-12-18T11:01:06;96005.38;;;5.34;100.00
11099;BME280;12223;42.650;23.364;2022-12-18T11:03:35;96010.13;;;5.30;100.00
11099;BME280;12223;42.650;23.364;2022-12-18T11:06:05;96005.81;;;5.55;100.00
11099;BME280;12223;42.650;23.364;2022-12-18T11:08:33;96002.38;;;5.54;100.00
11099;BME280;12223;42.650;23.364;2022-12-18T11:11:01;96009.06;;;5.57;100.00
11099;BME280;12223;42.650;23.364;2022-12-18T11:13:29;96016.09;;;5.56;100.00
11099;BME280;12223;42.650;23.364;2022-12-18T11:15:57;96013.06;;;5.01;100.00
11099;BME280;12223;42.650;23.364;2022-12-18T11:18:27;96010.06;;;5.22;100.00
11099;BME280;12223;42.650;23.364;2022-12-18T11:20:56;96005.72;;;5.31;100.00
11099;BME280;12223;42.650;23.364;2022-12-18T11:23:24;96013.31;;;5.16;98.57
11099;BME280;12223;42.650;23.364;2022-12-18T11:25:54;96029.91;;;5.24;98.21
11099;BME280;12223;42.650;23.364;2022-12-18T11:28:35;96016.97;;;5.23;97.66
11099;BME280;12223;42.650;23.364;2022-12-18T11:31:18;96025.72;;;5.40;98.04
11099;BME280;12223;42.650;23.364;2022-12-18T11:33:50;96016.09;;;5.48;95.86
11099;BME280;12223;42.650;23.364;2022-12-18T11:36:18;96017.69;;;5.41;95.52
11099;BME280;12223;42.650;23.364;2022-12-18T11:38:47;96017.19;;;5.38;97.24
11099;BME280;12223;42.650;23.364;2022-12-18T11:41:21;96022.47;;;5.46;96.66
11099;BME280;12223;42.650;23.364;2022-12-18T11:44:13;96022.16;;;5.49;96.32
11099;BME280;12223;42.650;23.364;2022-12-18T11:46:47;96018.91;;;5.55;97.82
11099;BME280;12223;42.650;23.364;2022-12-18T11:49:21;96025.81;;;5.56;96.37
11099;BME280;12223;42.650;23.364;2022-12-18T11:51:55;96028.22;;;5.49;95.80
11099;BME280;12223;42.650;23.364;2022-12-18T11:54:22;96022.69;;;5.60;95.57
11099;BME280;12223;42.650;23.364;2022-12-18T11:56:51;96029.06;;;5.58;94.37
11099;BME280;12223;42.650;23.364;2022-12-18T11:59:28;96026.59;;;5.56;91.80
11099;BME280;12223;42.650;23.364;2022-12-18T12:02:09;96023.81;;;5.58;90.58
11099;BME280;12223;42.650;23.364;2022-12-18T12:05:04;96022.28;;;5.39;90.17
11099;BME280;12223;42.650;23.364;2022-12-18T12:07:46;96029.31;;;5.39;91.36
11099;BME280;12223;42.650;23.364;2022-12-18T12:10:28;96024.25;;;5.37;92.39
11099;BME280;12223;42.650;23.364;2022-12-18T12:13:10;96021.44;;;5.05;94.38
11099;BME280;12223;42.650;23.364;2022-12-18T12:15:47;96023.66;;;5.17;96.00
11099;BME280;12223;42.650;23.364;2022-12-18T12:18:28;96018.72;;;4.89;98.27
11099;BME280;12223;42.650;23.364;2022-12-18T12:21:04;96019.88;;;4.94;99.38
11099;BME280;12223;42.650;23.364;2022-12-18T12:23:40;96023.44;;;5.11;100.00
11099;BME280;12223;42.650;23.364;2022-12-18T12:26:12;96023.22;;;5.30;99.73
11099;BME280;12223;42.650;23.364;2022-12-18T12:28:59;96024.03;;;5.31;99.27
11099;BME280;12223;42.650;23.364;2022-12-18T12:31:44;96023.22;;;5.30;98.89
11099;BME280;12223;42.650;23.364;2022-12-18T12:34:19;96031.97;;;5.47;99.11
11099;BME280;12223;42.650;23.364;2022-12-18T12:37:01;96030.66;;;5.43;98.24
11099;BME280;12223;42.650;23.364;2022-12-18T12:39:34;96032.59;;;5.41;98.21
11099;BME280;12223;42.650;23.364;2022-12-18T12:42:02;96033.75;;;5.46;98.13
11099;BME280;12223;42.650;23.364;2022-12-18T12:44:50;95992.13;;;5.35;98.59
11099;BME280;12223;42.650;23.364;2022-12-18T12:47:22;96026.44;;;5.50;98.89
11099;BME280;12223;42.650;23.364;2022-12-18T12:49:52;96028.38;;;5.48;99.33
11099;BME280;12223;42.650;23.364;2022-12-18T12:52:28;96037.59;;;5.60;99.52
11099;BME280;12223;42.650;23.364;2022-12-18T12:54:58;96038.56;;;5.59;100.00
11099;BME280;12223;42.650;23.364;2022-12-18T12:57:31;96042.16;;;5.50;99.68
11099;BME280;12223;42.650;23.364;2022-12-18T13:00:04;96045.13;;;5.55;99.46
11099;BME280;12223;42.650;23.364;2022-12-18T13:02:37;96040.53;;;5.57;100.00
11099;BME280;12223;42.650;23.364;2022-12-18T13:05:11;96052.16;;;5.54;100.00